Time;durP1;ratioP1;P1;durP2;ratioP2;P2;SDS_P1;SDS_P2;PMS_P1;PMS_P2;Temp;Humidity;BMP_temperature;BMP_pressure;BME280_temperature;BME280_humidity;BME280_pressure;Samples;Min_cycle;Max_cycle;Signal;HPM_P1;HPM_P2
2024/02/27 00:00:25;;;;;;;6.43;3.63;;;;;;;1.35;78.34;101748.31;5055228;28;20438;-69
2024/02/27 00:02:53;;;;;;;5.43;3.10;;;;;;;1.36;77.70;101739.78;5055398;28;20431;-68
2024/02/27 00:05:20;;;;;;;6.07;2.73;;;;;;;1.33;77.82;101734.50;5055345;28;20957;-68
2024/02/27 00:07:47;;;;;;;5.80;2.87;;;;;;;1.33;77.80;101744.81;5055126;28;20487;-68
2024/02/27 00:10:15;;;;;;;5.50;2.63;;;;;;;1.33;78.11;101749.97;5055169;28;20443;-68
2024/02/27 00:12:42;;;;;;;4.60;2.60;;;;;;;1.32;77.89;101752.53;5054977;28;20446;-69
2024/02/27 00:15:09;;;;;;;5.37;2.80;;;;;;;1.30;78.04;101747.31;5055164;28;20452;-68
2024/02/27 00:17:36;;;;;;;5.43;2.70;;;;;;;1.29;78.06;101758.44;5055024;28;20657;-69
2024/02/27 00:20:07;;;;;;;6.30;3.07;;;;;;;1.29;78.09;101758.44;5054883;28;20434;-68
2024/02/27 00:22:34;;;;;;;7.97;3.23;;;;;;;1.29;78.17;101752.44;5054732;28;20446;-68
2024/02/27 00:25:01;;;;;;;6.03;2.90;;;;;;;1.26;78.05;101758.34;5054794;28;20434;-69
2024/02/27 00:27:27;;;;;;;6.00;2.67;;;;;;;1.27;77.81;101756.66;5054694;28;20484;-68
2024/02/27 00:29:54;;;;;;;5.67;3.00;;;;;;;1.25;77.91;101760.06;5054949;28;20435;-68
2024/02/27 00:32:21;;;;;;;4.87;2.37;;;;;;;1.26;78.02;101760.94;5054943;28;20981;-68
2024/02/27 00:34:48;;;;;;;6.07;3.00;;;;;;;1.26;77.83;101768.66;5054462;28;20441;-69
2024/02/27 00:37:16;;;;;;;5.00;2.73;;;;;;;1.27;78.17;101774.69;5054570;28;20438;-68
2024/02/27 00:39:43;;;;;;;7.07;2.80;;;;;;;1.26;78.06;101781.56;5054533;28;20443;-77
2024/02/27 00:42:10;;;;;;;6.27;3.10;;;;;;;1.25;78.19;101772.09;5054479;28;20453;-71
2024/02/27 00:44:38;;;;;;;6.00;2.73;;;;;;;1.22;77.53;101777.13;5054532;28;20452;-72
2024/02/27 00:47:05;;;;;;;5.30;2.57;;;;;;;1.25;77.74;101777.25;5053600;28;20490;-72
2024/02/27 00:49:32;;;;;;;5.37;2.70;;;;;;;1.24;78.20;101778.91;5054547;28;20831;-71
2024/02/27 00:51:59;;;;;;;3.97;2.50;;;;;;;1.23;78.15;101778.91;5054230;28;20809;-71
2024/02/27 00:54:27;;;;;;;4.47;2.60;;;;;;;1.24;77.92;101783.22;5054358;28;20449;-72
2024/02/27 00:56:54;;;;;;;5.83;2.80;;;;;;;1.22;77.91;101783.19;5054229;28;20445;-71
2024/02/27 00:59:20;;;;;;;8.10;3.07;;;;;;;1.22;78.02;101782.28;5054366;28;20434;-72
2024/02/27 01:01:47;;;;;;;4.90;2.50;;;;;;;1.20;78.13;101774.50;5054183;28;20522;-70
2024/02/27 01:04:14;;;;;;;6.13;3.33;;;;;;;1.20;78.09;101783.94;5054051;28;20928;-70
2024/02/27 01:06:41;;;;;;;6.07;2.70;;;;;;;1.20;78.15;101781.38;5053938;28;20481;-71
2024/02/27 01:09:08;;;;;;;7.77;3.10;;;;;;;1.19;77.98;101779.59;5053881;28;20430;-70
2024/02/27 01:11:36;;;;;;;4.30;2.47;;;;;;;1.18;77.88;101781.31;5054044;28;20446;-70
2024/02/27 01:14:03;;;;;;;5.20;2.87;;;;;;;1.19;77.92;101787.34;5053885;28;20932;-70
2024/02/27 01:16:30;;;;;;;6.03;3.10;;;;;;;1.18;77.63;101791.63;5053759;28;20444;-70
2024/02/27 01:18:57;;;;;;;5.03;2.33;;;;;;;1.18;77.77;101790.75;5053948;28;20442;-70
2024/02/27 01:21:24;;;;;;;8.20;3.00;;;;;;;1.16;78.22;101788.13;5053585;28;20449;-70
2024/02/27 01:23:51;;;;;;;5.70;3.97;;;;;;;1.17;78.19;101791.59;5053342;28;20445;-70
2024/02/27 01:26:17;;;;;;;7.67;3.00;;;;;;;1.17;77.86;101794.16;5053510;28;20955;-71
2024/02/27 01:28:46;;;;;;;6.33;2.50;;;;;;;1.16;77.87;101787.25;5053743;28;20761;-70
2024/02/27 01:31:12;;;;;;;4.90;2.53;;;;;;;1.17;78.04;101791.59;5053828;28;20442;-70
2024/02/27 01:33:39;;;;;;;5.67;3.07;;;;;;;1.16;78.27;101797.56;5053484;28;20439;-70
2024/02/27 01:36:07;;;;;;;7.17;3.33;;;;;;;1.15;77.76;101785.50;5053476;28;20449;-70
2024/02/27 01:38:34;;;;;;;5.03;2.50;;;;;;;1.15;77.80;101793.22;5053648;28;20443;-70
2024/02/27 01:41:01;;;;;;;4.23;2.37;;;;;;;1.12;78.50;101791.44;5053576;28;20433;-70
2024/02/27 01:43:28;;;;;;;6.37;2.80;;;;;;;1.12;78.27;101794.00;5053410;28;20446;-70
2024/02/27 01:46:07;;;;;;;4.97;2.30;;;;;;;1.11;78.13;101789.69;5053568;28;20436;-71
2024/02/27 01:48:34;;;;;;;4.87;2.63;;;;;;;1.13;77.96;101789.72;5053048;28;20478;-71
2024/02/27 01:51:02;;;;;;;4.50;2.50;;;;;;;1.13;78.04;101792.28;5053317;28;20841;-71
2024/02/27 01:53:30;;;;;;;5.07;2.40;;;;;;;1.12;78.25;101787.97;5053015;28;20966;-70
2024/02/27 01:55:57;;;;;;;4.13;2.50;;;;;;;1.11;78.32;101786.25;5053053;28;20524;-70
2024/02/27 01:58:24;;;;;;;3.73;2.40;;;;;;;1.10;77.80;101792.19;5052937;28;20444;-70
2024/02/27 02:00:52;;;;;;;5.00;2.43;;;;;;;1.08;78.01;101781.84;5052907;28;20470;-70
2024/02/27 02:03:23;;;;;;;5.70;2.40;;;;;;;1.08;77.96;101787.00;5034227;28;20437;-70
2024/02/27 02:05:50;;;;;;;2.40;1.77;;;;;;;1.07;78.20;101782.66;5033090;28;20935;-70
2024/02/27 02:08:18;;;;;;;4.43;2.10;;;;;;;1.05;78.03;101783.44;5032956;28;21106;-70
2024/02/27 02:10:45;;;;;;;3.33;1.80;;;;;;;1.06;77.74;101790.38;5033040;28;20932;-75
2024/02/27 02:13:12;;;;;;;2.97;2.10;;;;;;;1.03;78.37;101781.69;5033065;28;20678;-75
2024/02/27 02:15:39;;;;;;;4.23;2.03;;;;;;;1.03;77.97;101784.28;5032924;28;20526;-75
2024/02/27 02:18:06;;;;;;;4.60;1.97;;;;;;;1.02;77.76;101777.38;5033371;28;20447;-75
2024/02/27 02:20:34;;;;;;;4.13;2.10;;;;;;;1.02;78.34;101785.13;5032917;28;20439;-75
2024/02/27 02:23:01;;;;;;;5.63;2.37;;;;;;;1.00;77.98;101781.59;5032843;28;20440;-75
2024/02/27 02:25:32;;;;;;;4.70;2.13;;;;;;;1.01;78.05;101782.47;5033044;28;20477;-75
2024/02/27 02:27:59;;;;;;;5.90;2.37;;;;;;;0.99;77.89;101785.00;5032673;28;20478;-74
2024/02/27 02:30:26;;;;;;;4.40;2.30;;;;;;;0.99;78.23;101787.59;5032815;28;20431;-75
2024/02/27 02:32:53;;;;;;;5.83;2.43;;;;;;;1.00;78.28;101797.06;5032739;28;20428;-75
2024/02/27 02:35:20;;;;;;;3.53;2.00;;;;;;;0.98;77.99;101803.00;5032771;28;20431;-74
2024/02/27 02:37:49;;;;;;;4.00;2.20;;;;;;;1.00;77.77;101789.34;5032635;28;20954;-74
2024/02/27 02:40:17;;;;;;;5.40;2.20;;;;;;;0.99;78.16;101795.31;5032723;28;20439;-75
2024/02/27 02:42:44;;;;;;;4.80;1.87;;;;;;;0.98;77.93;101792.69;5032593;28;20954;-75
2024/02/27 02:45:12;;;;;;;3.17;1.60;;;;;;;0.99;78.04;101799.56;5032676;28;20439;-75
2024/02/27 02:47:38;;;;;;;3.27;2.00;;;;;;;0.97;78.27;101796.97;5032581;28;21033;-74
2024/02/27 02:50:06;;;;;;;3.33;2.43;;;;;;;0.96;77.89;101791.75;5032513;28;20439;-75
2024/02/27 02:52:33;;;;;;;3.73;2.40;;;;;;;0.94;78.11;101791.72;5032976;28;20201;-75
2024/02/27 02:55:02;;;;;;;5.10;2.47;;;;;;;0.92;78.26;101788.19;5032735;28;20496;-75
2024/02/27 02:57:29;;;;;;;4.77;2.30;;;;;;;0.93;78.02;101796.81;5032469;28;20466;-75
2024/02/27 02:59:56;;;;;;;3.80;2.10;;;;;;;0.92;78.02;101792.47;5032511;28;20435;-72
2024/02/27 03:02:23;;;;;;;3.47;2.07;;;;;;;0.91;77.95;101793.31;5032459;28;20435;-71
2024/02/27 03:04:50;;;;;;;3.83;2.27;;;;;;;0.89;77.81;101794.97;5032372;28;20815;-71
2024/02/27 03:07:17;;;;;;;3.13;2.10;;;;;;;0.84;77.79;101783.63;5032323;28;20478;-71
2024/02/27 03:09:44;;;;;;;2.73;1.77;;;;;;;0.86;77.58;101797.44;5032496;28;20449;-71
2024/02/27 03:12:12;;;;;;;3.50;2.10;;;;;;;0.85;77.84;101795.66;5035792;28;20492;-71
2024/02/27 03:14:45;;;;;;;4.80;2.00;;;;;;;0.84;78.07;101797.38;5036238;28;20450;-71
2024/02/27 03:17:13;;;;;;;2.23;1.57;;;;;;;0.79;77.77;101792.09;5036037;28;20928;-71
2024/02/27 03:19:40;;;;;;;3.10;1.93;;;;;;;0.70;78.10;101776.28;5036089;28;20454;-77
2024/02/27 03:22:08;;;;;;;3.07;1.70;;;;;;;0.76;77.97;101801.38;5038015;28;20446;-79
2024/02/27 03:24:35;;;;;;;3.47;2.20;;;;;;;0.73;77.75;101797.00;5056068;28;20445;-80
2024/02/27 03:27:02;;;;;;;3.10;2.00;;;;;;;0.73;78.21;101796.13;5056297;28;20449;-79
2024/02/27 03:29:30;;;;;;;2.70;1.77;;;;;;;0.72;78.24;101790.13;5056381;28;20434;-79
2024/02/27 03:31:57;;;;;;;3.40;1.97;;;;;;;0.72;77.97;101794.41;5056341;28;20445;-80
2024/02/27 03:34:26;;;;;;;4.30;2.07;;;;;;;0.71;77.62;101790.06;5056383;28;20456;-79
2024/02/27 03:36:53;;;;;;;2.97;1.80;;;;;;;0.73;77.67;101806.44;5056175;28;20434;-79
2024/02/27 03:39:19;;;;;;;4.13;2.10;;;;;;;0.67;77.82;101795.94;5056128;28;20452;-79
2024/02/27 03:41:46;;;;;;;2.70;1.90;;;;;;;0.70;78.33;101807.19;5055805;28;20442;-79
2024/02/27 03:44:13;;;;;;;3.60;1.80;;;;;;;0.72;77.95;101815.00;5055899;28;20438;-79
2024/02/27 03:46:41;;;;;;;2.50;1.60;;;;;;;0.70;77.59;101804.63;5055828;28;20441;-79
2024/02/27 03:49:08;;;;;;;3.23;2.10;;;;;;;0.68;77.71;101807.97;5055531;28;20996;-79
2024/02/27 03:51:36;;;;;;;2.97;1.83;;;;;;;0.65;77.64;101800.16;5055902;28;20941;-79
2024/02/27 03:54:03;;;;;;;3.77;1.70;;;;;;;0.66;78.02;101814.78;5055879;28;20923;-79
2024/02/27 03:56:30;;;;;;;3.70;1.40;;;;;;;0.63;77.70;101823.28;5055611;28;20470;-79
2024/02/27 03:58:57;;;;;;;3.77;1.70;;;;;;;0.64;78.00;101826.72;5055766;28;20445;-79
2024/02/27 04:01:24;;;;;;;3.37;1.70;;;;;;;0.64;78.04;101821.59;5055626;28;20440;-79
2024/02/27 04:03:52;;;;;;;3.90;1.70;;;;;;;0.64;78.09;101819.88;5055378;28;20440;-79
2024/02/27 04:06:19;;;;;;;3.27;1.70;;;;;;;0.64;78.16;101826.72;5055836;28;20438;-79
2024/02/27 04:08:46;;;;;;;3.37;1.80;;;;;;;0.64;78.19;101821.59;5055455;28;20853;-79
2024/02/27 04:11:13;;;;;;;2.13;1.47;;;;;;;0.61;77.43;101822.34;5055151;28;20795;-72
2024/02/27 04:13:40;;;;;;;2.63;1.70;;;;;;;0.61;77.43;101827.50;5055122;28;20441;-71
2024/02/27 04:16:07;;;;;;;3.63;1.73;;;;;;;0.61;77.86;101821.47;5055014;28;20438;-72
2024/02/27 04:18:34;;;;;;;2.00;1.50;;;;;;;0.60;77.58;101819.75;5055078;28;20479;-72
2024/02/27 04:21:03;;;;;;;3.00;1.70;;;;;;;0.56;77.70;101811.88;5054841;28;20806;-72
2024/02/27 04:23:30;;;;;;;2.43;1.70;;;;;;;0.55;77.58;101815.28;5053826;28;20477;-71
2024/02/27 04:25:57;;;;;;;3.73;1.70;;;;;;;0.54;78.02;101812.66;5054819;28;20426;-72
2024/02/27 04:28:24;;;;;;;2.13;1.60;;;;;;;0.53;77.32;101808.31;5054660;28;20477;-71
2024/02/27 04:30:50;;;;;;;2.30;1.43;;;;;;;0.52;78.07;101811.72;5054886;28;20442;-70
2024/02/27 04:33:17;;;;;;;4.20;2.00;;;;;;;0.50;77.95;101801.38;5054728;28;20434;-71
2024/02/27 04:35:44;;;;;;;2.13;1.57;;;;;;;0.51;77.51;101810.00;5054678;28;20444;-70
2024/02/27 04:38:12;;;;;;;2.03;1.50;;;;;;;0.50;78.06;101811.66;5054599;28;20448;-70
2024/02/27 04:40:41;;;;;;;2.27;1.50;;;;;;;0.51;77.62;101821.16;5054944;28;20440;-71
2024/02/27 04:43:08;;;;;;;1.60;1.40;;;;;;;0.51;77.73;101825.44;5054535;28;20448;-70
2024/02/27 04:45:35;;;;;;;2.73;1.80;;;;;;;0.50;78.10;101828.81;5054320;28;20445;-71
2024/02/27 04:48:04;;;;;;;1.60;1.43;;;;;;;0.50;77.30;101824.53;5054445;28;20562;-70
2024/02/27 04:50:31;;;;;;;2.87;1.60;;;;;;;0.52;77.55;101829.75;5054579;28;20465;-71
2024/02/27 04:52:57;;;;;;;2.73;1.77;;;;;;;0.49;77.89;101824.50;5054817;28;20434;-70
2024/02/27 04:55:26;;;;;;;2.57;2.00;;;;;;;0.51;77.79;101828.88;5054242;28;20999;-70
2024/02/27 04:57:54;;;;;;;4.33;1.70;;;;;;;0.51;77.45;101823.75;5054513;28;20982;-70
2024/02/27 05:00:22;;;;;;;2.53;1.50;;;;;;;0.51;77.96;101813.44;5054292;28;20450;-70
2024/02/27 05:02:48;;;;;;;2.47;1.40;;;;;;;0.51;77.47;101821.16;5054289;28;20426;-71
2024/02/27 05:05:15;;;;;;;5.20;1.80;;;;;;;0.51;77.47;101816.00;5054015;28;20434;-71
2024/02/27 05:07:42;;;;;;;2.07;1.40;;;;;;;0.50;77.89;101816.81;5053922;28;20452;-70
2024/02/27 05:10:10;;;;;;;2.97;1.37;;;;;;;0.52;77.56;101822.91;5054267;28;20435;-70
2024/02/27 05:12:38;;;;;;;2.67;1.57;;;;;;;0.52;77.29;101819.47;5053840;28;20430;-70
2024/02/27 05:15:06;;;;;;;2.20;1.60;;;;;;;0.52;78.13;101822.03;5054006;28;20434;-71
2024/02/27 05:17:32;;;;;;;2.50;1.67;;;;;;;0.51;77.93;101828.88;5053831;28;20438;-70
2024/02/27 05:19:59;;;;;;;2.20;1.60;;;;;;;0.51;77.52;101831.47;5053910;28;20442;-75
2024/02/27 05:22:26;;;;;;;2.23;1.40;;;;;;;0.51;77.88;101828.88;5053594;28;20448;-75
2024/02/27 05:24:53;;;;;;;3.53;1.83;;;;;;;0.51;77.34;101831.47;5053707;28;20452;-75
2024/02/27 05:27:20;;;;;;;3.83;1.33;;;;;;;0.51;77.51;101828.88;5053731;28;20434;-75
2024/02/27 05:29:48;;;;;;;2.30;1.40;;;;;;;0.51;77.94;101831.47;5053515;28;20489;-75
2024/02/27 05:32:15;;;;;;;11.38;2.70;;;;;;;0.55;78.11;101833.31;5052919;28;20439;-75
2024/02/27 05:34:42;;;;;;;4.20;2.00;;;;;;;0.58;77.97;101843.72;5053217;28;20199;-74
2024/02/27 05:37:09;;;;;;;3.93;1.80;;;;;;;0.58;78.01;101840.28;5053520;28;20430;-75
2024/02/27 05:39:36;;;;;;;3.03;1.80;;;;;;;0.56;77.99;101834.19;5053828;28;20442;-78
2024/02/27 05:42:03;;;;;;;1.80;1.33;;;;;;;0.55;78.15;101843.59;5053382;28;20438;-70
2024/02/27 05:44:30;;;;;;;3.50;1.60;;;;;;;0.56;77.72;101847.06;5053371;28;20505;-70
2024/02/27 05:46:58;;;;;;;3.83;1.73;;;;;;;0.55;78.34;101847.88;5053136;28;20521;-70
2024/02/27 05:49:25;;;;;;;2.40;1.60;;;;;;;0.54;77.50;101854.75;5053364;28;20477;-70
2024/02/27 05:51:51;;;;;;;3.50;2.23;;;;;;;0.52;77.81;101855.50;5053184;28;20436;-70
2024/02/27 05:54:18;;;;;;;2.33;1.60;;;;;;;0.51;77.60;101857.22;5052933;28;20444;-71
2024/02/27 05:56:45;;;;;;;3.87;1.60;;;;;;;0.50;77.61;101865.75;5053402;28;20435;-70
2024/02/27 05:59:12;;;;;;;2.43;1.70;;;;;;;0.50;77.89;101870.88;5053021;28;20438;-70
2024/02/27 06:01:39;;;;;;;2.90;1.90;;;;;;;0.49;77.65;101865.69;5053168;28;20474;-70
2024/02/27 06:04:07;;;;;;;3.43;1.93;;;;;;;0.50;77.75;101858.00;5053029;28;20430;-70
2024/02/27 06:06:34;;;;;;;2.43;1.80;;;;;;;0.50;77.67;101859.72;5052962;28;20766;-70
2024/02/27 06:09:03;;;;;;;3.60;1.83;;;;;;;0.50;78.33;101857.13;5052883;28;20477;-70
2024/02/27 06:11:30;;;;;;;2.60;1.33;;;;;;;0.49;78.11;101858.84;5052810;28;20452;-70
2024/02/27 06:13:59;;;;;;;2.60;1.63;;;;;;;0.49;77.49;101851.13;5052875;28;20441;-70
2024/02/27 06:16:26;;;;;;;3.23;1.87;;;;;;;0.49;78.23;101848.53;5052797;28;20446;-70
2024/02/27 06:18:54;;;;;;;3.07;1.87;;;;;;;0.48;77.67;101844.22;5053040;28;20442;-70
2024/02/27 06:24:07;;;;;;;3.27;1.80;;;;;;;0.47;77.69;101847.59;5053221;28;20571;-70
2024/02/27 06:26:34;;;;;;;2.43;1.63;;;;;;;0.48;77.79;101853.63;5052687;28;20434;-70
2024/02/27 06:29:01;;;;;;;2.53;1.77;;;;;;;0.46;78.03;101848.44;5052947;28;20531;-70
2024/02/27 06:31:28;;;;;;;2.83;1.97;;;;;;;0.47;77.73;101857.91;5052742;28;20437;-69
2024/02/27 06:33:54;;;;;;;2.63;1.87;;;;;;;0.47;77.68;101860.47;5052536;28;20512;-69
2024/02/27 06:36:23;;;;;;;3.37;1.90;;;;;;;0.48;78.21;101861.34;5052780;28;20442;-68
2024/02/27 06:38:50;;;;;;;2.73;1.80;;;;;;;0.48;78.18;101856.19;5052547;28;20891;-68
2024/02/27 06:41:17;;;;;;;2.77;1.87;;;;;;;0.48;77.71;101861.34;5052644;28;20955;-69
2024/02/27 06:43:44;;;;;;;3.73;1.90;;;;;;;0.49;78.17;101860.56;5052462;28;20433;-68
2024/02/27 06:46:10;;;;;;;4.03;2.00;;;;;;;0.48;78.30;101864.81;5054736;28;20448;-68
2024/02/27 06:48:37;;;;;;;3.23;2.20;;;;;;;0.46;77.96;101865.59;5056556;28;20484;-68
2024/02/27 06:51:06;;;;;;;3.50;2.30;;;;;;;0.49;78.38;101871.72;5056802;28;20425;-71
2024/02/27 06:53:35;;;;;;;2.20;1.57;;;;;;;0.50;78.05;101867.44;5056478;28;20951;-72
2024/02/27 06:56:01;;;;;;;2.83;1.80;;;;;;;0.50;78.01;101863.16;5056544;28;20476;-72
2024/02/27 06:58:29;;;;;;;4.47;2.23;;;;;;;0.49;77.90;101869.16;5056454;28;20442;-71
2024/02/27 07:00:55;;;;;;;3.20;1.70;;;;;;;0.49;78.53;101874.28;5056502;28;20438;-72
2024/02/27 07:03:22;;;;;;;3.20;1.87;;;;;;;0.49;78.23;101884.59;5056662;28;20442;-71
2024/02/27 07:05:49;;;;;;;3.37;1.63;;;;;;;0.51;77.87;101882.09;5056354;28;20430;-71
2024/02/27 07:08:16;;;;;;;3.27;1.80;;;;;;;0.50;78.02;101891.50;5056366;28;20811;-71
2024/02/27 07:10:45;;;;;;;3.37;1.97;;;;;;;0.52;78.28;101889.84;5056200;28;20919;-72
2024/02/27 07:13:12;;;;;;;3.30;1.80;;;;;;;0.52;78.55;101895.00;5056255;28;20434;-71
2024/02/27 07:15:41;;;;;;;2.90;1.80;;;;;;;0.54;78.00;101892.50;5056236;28;20931;-71
2024/02/27 07:18:08;;;;;;;3.17;1.97;;;;;;;0.54;78.09;101893.38;5056005;28;20486;-71
2024/02/27 07:20:36;;;;;;;2.67;2.00;;;;;;;0.54;78.31;101888.22;5056011;28;20914;-71
2024/02/27 07:23:02;;;;;;;4.30;1.90;;;;;;;0.55;78.32;101891.66;5039874;28;20446;-72
2024/02/27 07:25:29;;;;;;;2.73;1.97;;;;;;;0.56;78.38;101885.69;5036021;28;20434;-71
2024/02/27 07:27:58;;;;;;;2.63;1.67;;;;;;;0.57;78.46;101888.31;5035932;28;20443;-71
2024/02/27 07:30:26;;;;;;;2.73;1.73;;;;;;;0.57;78.46;101898.63;5036326;28;20478;-71
2024/02/27 07:32:53;;;;;;;4.93;1.87;;;;;;;0.58;78.19;101896.94;5035933;28;20497;-71
2024/02/27 07:35:20;;;;;;;3.50;2.07;;;;;;;0.58;78.48;101894.34;5035875;28;20807;-71
2024/02/27 07:37:47;;;;;;;2.90;2.03;;;;;;;0.58;78.67;101897.78;5035763;28;20815;-72
2024/02/27 07:40:14;;;;;;;3.40;1.93;;;;;;;0.60;78.40;101897.88;5035795;28;20517;-72
2024/02/27 07:42:41;;;;;;;2.33;1.73;;;;;;;0.61;78.36;101898.75;5035735;28;20457;-71
2024/02/27 07:45:10;;;;;;;3.87;2.00;;;;;;;0.61;78.58;101893.59;5035522;28;20464;-71
2024/02/27 07:47:37;;;;;;;4.13;2.30;;;;;;;0.61;78.68;101894.47;5035558;28;20467;-71
2024/02/27 07:50:05;;;;;;;4.30;2.43;;;;;;;0.62;78.10;101890.19;5035503;28;20478;-71
2024/02/27 07:52:31;;;;;;;3.53;2.27;;;;;;;0.63;78.21;101891.94;5035703;28;20432;-71
2024/02/27 07:54:58;;;;;;;3.87;2.30;;;;;;;0.64;78.21;101893.69;5035416;28;20482;-71
2024/02/27 07:57:26;;;;;;;4.53;2.00;;;;;;;0.61;78.04;101883.28;5035115;28;20474;-71
2024/02/27 07:59:53;;;;;;;4.03;2.17;;;;;;;0.62;78.72;101879.88;5035606;28;20439;-70
2024/02/27 08:02:21;;;;;;;4.10;2.10;;;;;;;0.66;78.52;101886.91;5035480;28;20441;-71
2024/02/27 08:04:48;;;;;;;2.87;2.03;;;;;;;0.66;78.54;101889.47;5035320;28;20438;-71
2024/02/27 08:07:15;;;;;;;2.83;1.60;;;;;;;0.68;78.23;101893.88;5035558;28;20438;-71
2024/02/27 08:09:42;;;;;;;3.73;2.07;;;;;;;0.69;78.39;101902.47;5035085;28;20482;-71
2024/02/27 08:12:10;;;;;;;3.57;2.03;;;;;;;0.70;78.57;101905.09;5035218;28;20446;-71
2024/02/27 08:14:37;;;;;;;4.43;2.10;;;;;;;0.68;78.25;101885.25;5035090;28;20445;-71
2024/02/27 08:17:05;;;;;;;4.50;2.40;;;;;;;0.67;78.41;101894.69;5035337;28;20807;-71
2024/02/27 08:19:34;;;;;;;4.30;2.20;;;;;;;0.73;78.14;101901.75;5034897;28;20435;-71
2024/02/27 08:22:03;;;;;;;3.73;1.90;;;;;;;0.73;78.75;101899.16;5035069;28;20447;-71
2024/02/27 08:24:31;;;;;;;4.60;2.03;;;;;;;0.75;78.84;101897.53;5035074;28;20435;-71
2024/02/27 08:26:58;;;;;;;3.97;2.57;;;;;;;0.72;78.15;101877.69;5034910;28;20465;-71
2024/02/27 08:29:24;;;;;;;4.43;2.13;;;;;;;0.78;78.73;101887.34;5035183;28;20493;-71
2024/02/27 08:31:51;;;;;;;3.00;1.90;;;;;;;0.77;78.77;101883.88;5034740;28;20443;-71
2024/02/27 08:34:19;;;;;;;4.50;2.10;;;;;;;0.78;78.23;101879.59;5034888;28;20435;-71
2024/02/27 08:36:47;;;;;;;3.33;2.03;;;;;;;0.80;78.26;101885.69;5034825;28;20446;-71
2024/02/27 08:39:14;;;;;;;2.70;1.80;;;;;;;0.80;78.12;101890.84;5034859;28;20449;-71
2024/02/27 08:41:42;;;;;;;3.20;1.90;;;;;;;0.80;78.41;101896.88;5034541;28;20431;-71
2024/02/27 08:44:08;;;;;;;3.50;2.00;;;;;;;0.80;78.52;101888.28;5034546;28;20435;-71
2024/02/27 08:46:37;;;;;;;2.87;1.70;;;;;;;0.82;78.17;101888.31;5034746;28;20446;-71
2024/02/27 08:49:04;;;;;;;3.33;2.17;;;;;;;0.80;78.61;101881.41;5034445;28;20848;-71
2024/02/27 08:51:33;;;;;;;3.43;1.90;;;;;;;0.84;78.51;101889.25;5034571;28;20443;-71
2024/02/27 08:54:02;;;;;;;3.40;2.20;;;;;;;0.86;78.43;101887.63;5034277;28;20450;-71
2024/02/27 08:56:29;;;;;;;3.40;2.03;;;;;;;0.86;78.31;101880.75;5034559;28;20475;-71
2024/02/27 08:58:55;;;;;;;3.83;2.13;;;;;;;0.87;78.50;101892.81;5034837;28;20428;-71
2024/02/27 09:01:22;;;;;;;3.13;2.10;;;;;;;0.87;78.57;101885.06;5034247;28;20453;-71
2024/02/27 09:03:49;;;;;;;2.80;1.73;;;;;;;0.88;78.57;101883.38;5034221;28;20894;-71
2024/02/27 09:06:16;;;;;;;4.80;2.30;;;;;;;0.88;78.56;101883.38;5034296;28;20867;-70
2024/02/27 09:08:43;;;;;;;4.17;1.93;;;;;;;0.88;78.27;101879.13;5033409;28;20445;-70
2024/02/27 09:11:11;;;;;;;4.20;2.20;;;;;;;0.93;78.26;101884.41;5033999;28;20450;-70
2024/02/27 09:13:38;;;;;;;3.77;2.70;;;;;;;0.95;78.16;101878.50;5034208;28;20431;-71
2024/02/27 09:16:06;;;;;;;4.13;2.30;;;;;;;0.96;78.21;101882.84;5033873;28;20493;-71
2024/02/27 09:18:33;;;;;;;3.27;2.23;;;;;;;0.97;78.62;101879.44;5033941;28;20766;-70
2024/02/27 09:21:01;;;;;;;3.60;2.03;;;;;;;0.99;78.59;101877.78;5036662;28;20457;-71
2024/02/27 09:23:28;;;;;;;5.47;2.40;;;;;;;1.00;78.33;101882.09;5053728;28;20467;-69
2024/02/27 09:25:55;;;;;;;4.67;2.40;;;;;;;1.01;78.29;101886.44;5053762;28;20780;-70
2024/02/27 09:28:23;;;;;;;3.97;2.40;;;;;;;1.03;78.16;101879.63;5053517;28;20881;-71
2024/02/27 09:30:50;;;;;;;4.50;2.60;;;;;;;1.05;78.57;101884.84;5053601;28;20488;-70
2024/02/27 09:33:17;;;;;;;3.77;2.10;;;;;;;1.09;78.41;101885.81;5053554;28;20444;-70
2024/02/27 09:35:45;;;;;;;4.23;2.03;;;;;;;1.10;78.70;101893.59;5053685;28;20435;-71
2024/02/27 09:38:11;;;;;;;5.87;2.27;;;;;;;1.13;78.66;101890.25;5053408;28;20438;-71
2024/02/27 09:40:41;;;;;;;2.60;1.67;;;;;;;1.14;78.52;101886.88;5053396;28;20460;-70
2024/02/27 09:43:14;;;;;;;2.63;1.90;;;;;;;1.14;78.31;101892.03;5053448;28;20951;-70
2024/02/27 09:45:43;;;;;;;3.27;2.00;;;;;;;1.12;78.25;101886.78;5053253;28;20966;-70
2024/02/27 09:48:11;;;;;;;3.63;2.30;;;;;;;1.14;78.48;101886.88;5053458;28;20433;-71
2024/02/27 09:50:40;;;;;;;3.50;2.10;;;;;;;1.17;78.22;101897.28;5053141;28;21047;-70
2024/02/27 09:53:09;;;;;;;2.97;2.00;;;;;;;1.18;78.39;101888.72;5053465;28;20438;-71
2024/02/27 09:55:36;;;;;;;2.70;1.83;;;;;;;1.22;78.19;101893.13;5053066;28;20466;-70
2024/02/27 09:58:03;;;;;;;4.60;2.37;;;;;;;1.23;78.27;101893.19;5053017;28;20541;-70
2024/02/27 10:00:30;;;;;;;3.63;2.30;;;;;;;1.26;78.32;101889.84;5053118;28;20446;-67
2024/02/27 10:03:01;;;;;;;3.23;2.27;;;;;;;1.28;78.48;101884.72;5053153;28;20952;-68
2024/02/27 10:05:28;;;;;;;3.37;1.97;;;;;;;1.30;78.18;101878.78;5053213;28;20780;-68
2024/02/27 10:07:57;;;;;;;3.10;2.30;;;;;;;1.30;78.52;101877.91;5052925;28;20521;-68
2024/02/27 10:10:23;;;;;;;3.10;1.80;;;;;;;1.33;78.13;101878.88;5052900;28;20850;-68
2024/02/27 10:12:50;;;;;;;3.83;2.00;;;;;;;1.34;78.37;101885.81;5052790;28;20941;-68
2024/02/27 10:15:17;;;;;;;3.30;2.20;;;;;;;1.35;78.22;101882.41;5052842;28;20438;-68
2024/02/27 10:17:46;;;;;;;3.93;2.23;;;;;;;1.36;78.32;101880.69;5052985;28;20445;-68
2024/02/27 10:20:17;;;;;;;4.10;2.20;;;;;;;1.36;78.50;101885.84;5052833;28;20446;-68
2024/02/27 10:22:44;;;;;;;2.43;1.67;;;;;;;1.36;78.30;101894.50;5052780;28;20812;-68
2024/02/27 10:25:14;;;;;;;2.97;2.10;;;;;;;1.37;78.30;101895.38;5052816;28;20791;-68
2024/02/27 10:27:43;;;;;;;2.77;2.00;;;;;;;1.37;78.24;101890.22;5052788;28;20504;-68
2024/02/27 10:30:11;;;;;;;2.87;1.70;;;;;;;1.36;78.11;101884.19;5052842;28;21025;-68
2024/02/27 10:32:40;;;;;;;3.10;2.00;;;;;;;1.36;77.89;101876.44;5052662;28;20808;-68
2024/02/27 10:35:07;;;;;;;3.37;2.10;;;;;;;1.36;77.94;101883.28;5052561;28;20448;-68
2024/02/27 10:37:36;;;;;;;3.03;2.23;;;;;;;1.37;78.34;101888.50;5052635;28;20445;-68
2024/02/27 10:40:06;;;;;;;4.30;2.47;;;;;;;1.37;78.04;101882.47;5052496;28;20512;-68
2024/02/27 10:42:33;;;;;;;3.33;2.23;;;;;;;1.38;78.35;101882.50;5052720;28;20817;-69
2024/02/27 10:45:01;;;;;;;3.33;2.07;;;;;;;1.40;78.31;101880.84;5052382;28;20486;-68
2024/02/27 10:47:28;;;;;;;3.57;2.07;;;;;;;1.43;78.35;101880.09;5052541;28;20446;-68
2024/02/27 10:49:55;;;;;;;4.00;2.43;;;;;;;1.44;78.27;101885.28;5052481;28;20507;-68
2024/02/27 10:52:24;;;;;;;3.57;2.17;;;;;;;1.44;78.08;101877.53;5052437;28;20521;-68
2024/02/27 10:54:53;;;;;;;3.57;2.37;;;;;;;1.45;78.27;101871.56;5052353;28;20553;-68
2024/02/27 10:57:20;;;;;;;2.40;2.20;;;;;;;1.44;78.24;101869.81;5052328;28;20450;-68
2024/02/27 10:59:46;;;;;;;3.33;2.30;;;;;;;1.45;77.94;101881.03;5052520;28;20434;-68
2024/02/27 11:02:17;;;;;;;3.03;2.27;;;;;;;1.46;78.00;101875.91;5052370;28;20450;-68
2024/02/27 11:04:45;;;;;;;3.53;2.33;;;;;;;1.46;77.85;101870.75;5052558;28;20437;-68
2024/02/27 11:07:15;;;;;;;2.47;1.60;;;;;;;1.45;78.04;101858.69;5052558;28;20534;-68
2024/02/27 11:09:45;;;;;;;3.50;2.20;;;;;;;1.46;77.85;101865.56;5052184;28;20478;-71
2024/02/27 11:12:15;;;;;;;3.60;2.33;;;;;;;1.45;78.14;101863.84;5052255;28;20443;-72
2024/02/27 11:14:46;;;;;;;3.03;2.10;;;;;;;1.49;78.32;101862.22;5052291;28;20495;-72
2024/02/27 11:17:21;;;;;;;4.20;2.73;;;;;;;1.51;78.06;101863.16;5052101;28;20448;-71
2024/02/27 11:19:50;;;;;;;3.73;2.53;;;;;;;1.51;77.94;101855.41;5052374;28;20469;-71
2024/02/27 11:22:19;;;;;;;4.63;2.27;;;;;;;1.53;78.18;101860.63;5051879;28;20465;-71
2024/02/27 11:24:47;;;;;;;3.00;2.10;;;;;;;1.54;77.96;101864.97;5052253;28;20433;-71
2024/02/27 11:27:21;;;;;;;5.03;2.40;;;;;;;1.56;78.03;101871.03;5052087;28;20436;-72
2024/02/27 11:29:49;;;;;;;3.83;2.50;;;;;;;1.57;78.14;101862.47;5051933;28;20481;-71
2024/02/27 11:32:19;;;;;;;3.87;2.43;;;;;;;1.59;78.06;101865.97;5054149;28;20431;-71
2024/02/27 11:34:47;;;;;;;3.07;2.10;;;;;;;1.59;78.07;101861.69;5055763;28;20526;-71
2024/02/27 11:37:16;;;;;;;3.83;2.50;;;;;;;1.60;78.10;101857.41;5056006;28;20911;-71